Time;durP1;ratioP1;P1;durP2;ratioP2;P2;SDS_P1;SDS_P2;PMS_P1;PMS_P2;Temp;Humidity;BMP_temperature;BMP_pressure;BME280_temperature;BME280_humidity;BME280_pressure;Samples;Min_cycle;Max_cycle;Signal;HPM_P1;HPM_P2
2022/04/26 03:37:17;;;;;;;28.77;11.10;;;7.70;99.90;;;;;;5074470;28;20037;-56
2022/04/26 03:39:44;;;;;;;29.85;11.25;;;7.70;99.90;;;;;;5074380;28;20387;-56
2022/04/26 03:42:11;;;;;;;24.95;9.60;;;7.70;99.90;;;;;;5074519;28;20021;-56
2022/04/26 03:44:37;;;;;;;23.80;9.38;;;7.70;99.90;;;;;;5074582;28;20103;-56
2022/04/26 03:47:04;;;;;;;21.13;9.02;;;7.70;99.90;;;;;;5074464;28;20028;-57
2022/04/26 03:49:30;;;;;;;19.35;8.70;;;7.60;99.90;;;;;;5074207;28;20055;-57
2022/04/26 03:51:56;;;;;;;20.40;8.75;;;7.60;99.90;;;;;;5074473;28;20033;-56
2022/04/26 03:54:23;;;;;;;19.77;8.95;;;7.50;99.90;;;;;;5074489;28;20501;-56
2022/04/26 03:56:50;;;;;;;17.55;10.35;;;7.50;99.90;;;;;;5074323;28;20104;-56
2022/04/26 03:59:16;;;;;;;25.00;11.23;;;7.50;99.90;;;;;;5074400;28;20040;-57
2022/04/26 04:01:42;;;;;;;18.58;9.50;;;7.50;99.90;;;;;;5074276;28;20342;-56
2022/04/26 04:04:08;;;;;;;18.40;9.48;;;7.40;99.90;;;;;;5074232;28;20032;-56
2022/04/26 04:06:34;;;;;;;17.55;8.10;;;7.50;99.90;;;;;;5074349;28;20455;-56
2022/04/26 04:09:00;;;;;;;16.02;7.95;;;7.50;99.90;;;;;;5074188;28;20040;-56
2022/04/26 04:11:26;;;;;;;18.23;8.98;;;7.50;99.90;;;;;;5074174;28;20104;-56
2022/04/26 04:13:52;;;;;;;21.92;9.13;;;7.60;99.90;;;;;;5074159;28;20542;-56
2022/04/26 04:16:18;;;;;;;24.42;9.73;;;7.70;99.90;;;;;;5074139;28;20021;-57
2022/04/26 04:21:29;;;;;;;24.48;10.45;;;7.90;99.90;;;;;;5073978;28;20052;-56
2022/04/26 04:23:55;;;;;;;22.30;10.25;;;7.90;99.90;;;;;;5073832;28;20047;-56
2022/04/26 04:26:21;;;;;;;21.35;8.75;;;7.90;99.90;;;;;;5074164;28;20029;-56
2022/04/26 04:28:47;;;;;;;23.17;9.52;;;8.00;99.90;;;;;;5074048;28;20051;-56
2022/04/26 04:31:15;;;;;;;29.83;10.65;;;8.00;99.90;;;;;;5058487;28;20103;-56
2022/04/26 04:33:43;;;;;;;27.38;9.57;;;8.10;99.90;;;;;;5077947;28;20055;-56
2022/04/26 04:36:09;;;;;;;27.95;9.98;;;8.30;99.90;;;;;;5077614;28;20027;-56
2022/04/26 04:38:35;;;;;;;22.02;9.73;;;8.40;99.90;;;;;;5077692;28;20032;-56
2022/04/26 04:41:02;;;;;;;30.15;10.23;;;8.50;99.90;;;;;;5077755;28;20025;-56
2022/04/26 04:43:28;;;;;;;25.58;10.23;;;8.60;99.90;;;;;;5077693;28;20028;-56
2022/04/26 04:45:54;;;;;;;23.55;10.15;;;8.80;99.90;;;;;;5077614;28;20029;-56
2022/04/26 04:48:20;;;;;;;25.92;11.43;;;8.80;99.90;;;;;;5077550;28;20037;-56
2022/04/26 04:50:45;;;;;;;36.88;12.93;;;8.90;99.90;;;;;;5077531;28;20039;-56
2022/04/26 04:53:11;;;;;;;28.05;11.63;;;9.00;99.90;;;;;;5077527;28;20028;-56
2022/04/26 04:55:41;;;;;;;29.42;12.85;;;9.20;99.90;;;;;;5077510;28;20031;-57
2022/04/26 04:58:07;;;;;;;25.27;12.52;;;9.30;99.90;;;;;;5077301;28;20021;-56
2022/04/26 05:00:34;;;;;;;35.15;15.75;;;9.50;99.90;;;;;;5077235;28;20025;-56
2022/04/26 05:03:00;;;;;;;31.50;13.77;;;9.50;99.90;;;;;;5077219;28;20032;-56
2022/04/26 05:05:26;;;;;;;38.63;15.43;;;9.60;99.90;;;;;;5077233;28;20446;-57
2022/04/26 05:07:53;;;;;;;31.13;14.27;;;9.80;99.90;;;;;;5076979;28;20025;-56
2022/04/26 05:10:19;;;;;;;26.52;13.35;;;9.90;99.90;;;;;;5077212;28;20029;-57
2022/04/26 05:12:45;;;;;;;33.67;14.45;;;10.10;99.90;;;;;;5077708;28;20029;-57
2022/04/26 05:15:12;;;;;;;32.72;15.15;;;10.30;99.90;;;;;;5077697;28;20032;-57
2022/04/26 05:17:38;;;;;;;27.98;13.15;;;10.40;99.90;;;;;;5063582;28;20033;-57
2022/04/26 05:20:05;;;;;;;30.98;12.35;;;10.60;99.90;;;;;;5040079;28;20037;-57
2022/04/26 05:24:53;;;;;;;28.98;11.88;;;10.70;99.90;;;;;;5078161;28;20032;-57
2022/04/26 05:25:17;;;;;;;23.70;10.27;;;10.80;99.90;;;;;;5082820;28;20029;-57
2022/04/26 05:27:43;;;;;;;25.27;10.73;;;10.90;99.90;;;;;;5078430;28;20043;-57
2022/04/26 05:30:10;;;;;;;30.55;12.10;;;11.00;99.90;;;;;;5091499;28;20032;-57
2022/04/26 05:32:36;;;;;;;25.48;11.80;;;11.30;99.90;;;;;;5091777;28;20028;-56
2022/04/26 05:35:04;;;;;;;30.13;11.73;;;11.40;99.90;;;;;;5093561;28;20032;-57
2022/04/26 05:37:31;;;;;;;27.15;11.90;;;11.40;99.90;;;;;;5091125;28;20032;-57
2022/04/26 05:39:59;;;;;;;24.27;11.70;;;11.50;99.90;;;;;;5083342;28;20035;-57
2022/04/26 05:42:35;;;;;;;24.88;9.88;;;11.60;99.90;;;;;;5083916;28;20124;-57
2022/04/26 05:45:01;;;;;;;21.92;9.77;;;11.80;99.90;;;;;;5093710;28;20047;-57
2022/04/26 05:47:28;;;;;;;32.42;10.35;;;11.80;99.90;;;;;;5088948;28;20068;-57
2022/04/26 05:49:55;;;;;;;38.95;11.52;;;11.90;99.90;;;;;;5095624;28;20563;-57
2022/04/26 05:52:24;;;;;;;35.97;9.20;;;12.00;99.90;;;;;;5087043;28;20051;-57
2022/04/26 05:54:51;;;;;;;29.67;10.07;;;12.10;99.90;;;;;;5101517;28;20020;-57
2022/04/26 05:57:18;;;;;;;27.35;10.50;;;12.20;99.90;;;;;;5095531;28;20509;-57
2022/04/26 05:59:44;;;;;;;25.95;10.20;;;12.30;99.90;;;;;;5098678;28;20031;-57
2022/04/26 06:02:11;;;;;;;25.88;9.30;;;12.40;99.90;;;;;;5092587;28;20032;-57
2022/04/26 06:04:38;;;;;;;18.70;9.02;;;12.50;99.90;;;;;;5089380;28;20085;-57
2022/04/26 06:07:08;;;;;;;24.05;9.40;;;12.70;99.90;;;;;;5076659;28;20040;-57
2022/04/26 06:09:34;;;;;;;30.95;10.70;;;13.00;99.90;;;;;;5093602;28;20028;-57
2022/04/26 06:12:00;;;;;;;37.00;10.82;;;13.30;99.90;;;;;;5094467;28;20038;-57
2022/04/26 06:14:26;;;;;;;29.38;10.75;;;13.60;99.90;;;;;;5081956;28;20032;-57
2022/04/26 06:16:52;;;;;;;31.50;10.32;;;13.80;99.90;;;;;;5084832;28;20100;-57
2022/04/26 06:19:18;;;;;;;24.63;9.85;;;14.00;99.90;;;;;;5100995;28;20028;-56
2022/04/26 06:21:44;;;;;;;43.17;13.23;;;14.20;99.90;;;;;;5090020;28;20486;-56
2022/04/26 06:24:10;;;;;;;23.33;9.77;;;14.60;99.90;;;;;;5099862;28;20024;-57
2022/04/26 06:26:36;;;;;;;23.92;9.18;;;14.80;99.90;;;;;;5104023;28;20061;-56
2022/04/26 06:29:02;;;;;;;21.88;9.98;;;15.00;99.90;;;;;;5094902;28;20060;-56
2022/04/26 06:31:28;;;;;;;25.75;9.88;;;15.10;99.90;;;;;;5094567;28;20507;-57
2022/04/26 06:33:54;;;;;;;24.05;9.82;;;15.50;99.90;;;;;;5093739;28;20016;-56
2022/04/26 06:36:20;;;;;;;29.55;9.32;;;15.70;99.90;;;;;;5094820;28;20024;-56
2022/04/26 06:38:46;;;;;;;19.58;8.07;;;15.80;99.90;;;;;;5094227;28;20107;-56
2022/04/26 06:41:12;;;;;;;25.95;8.95;;;16.20;99.90;;;;;;5093307;28;20373;-57
2022/04/26 06:43:39;;;;;;;18.90;8.65;;;16.60;99.90;;;;;;5092991;28;20110;-57
2022/04/26 06:46:05;;;;;;;30.40;9.15;;;17.00;99.90;;;;;;5096081;28;20063;-57
2022/04/26 06:48:32;;;;;;;29.17;10.50;;;17.30;96.10;;;;;;5095235;28;20094;-57
2022/04/26 06:51:00;;;;;;;21.77;9.32;;;17.60;97.20;;;;;;5095475;28;20020;-57
2022/04/26 06:53:26;;;;;;;15.43;8.52;;;17.90;93.80;;;;;;5074912;28;20070;-57
2022/04/26 06:55:53;;;;;;;20.75;10.35;;;18.20;91.50;;;;;;5090230;28;20382;-57
2022/04/26 06:58:20;;;;;;;24.27;8.80;;;18.40;92.10;;;;;;5100126;28;20036;-57
2022/04/26 07:00:46;;;;;;;24.25;13.10;;;18.80;94.40;;;;;;5095604;28;20066;-57
2022/04/26 07:03:13;;;;;;;19.08;9.48;;;19.10;90.10;;;;;;5095306;28;20013;-57
2022/04/26 07:05:41;;;;;;;26.33;8.63;;;19.00;80.30;;;;;;5095662;28;20036;-56
2022/04/26 07:08:07;;;;;;;19.33;7.60;;;18.90;81.90;;;;;;5095604;28;20110;-57
2022/04/26 07:10:37;;;;;;;14.98;6.90;;;18.70;82.60;;;;;;5076535;28;20039;-57
2022/04/26 07:13:03;;;;;;;19.65;9.15;;;18.50;84.80;;;;;;5076139;28;20036;-57
2022/04/26 07:15:29;;;;;;;38.47;11.68;;;18.50;92.40;;;;;;5094628;28;20024;-56
2022/04/26 07:17:55;;;;;;;40.30;11.48;;;18.70;88.90;;;;;;5095203;28;20031;-56
2022/04/26 07:20:22;;;;;;;26.35;9.70;;;18.70;92.60;;;;;;5094361;28;20036;-56
2022/04/26 07:22:48;;;;;;;42.97;9.77;;;18.90;92.20;;;;;;5086382;28;20402;-57
2022/04/26 07:25:15;;;;;;;24.55;8.73;;;19.30;90.50;;;;;;5093072;28;20098;-57
2022/04/26 07:27:41;;;;;;;37.63;9.60;;;19.50;89.40;;;;;;5095036;28;20036;-56
2022/04/26 07:30:07;;;;;;;38.22;9.00;;;19.70;70.50;;;;;;5094973;28;20039;-56
2022/04/26 07:35:35;;;;;;;33.25;8.82;;;20.20;73.40;;;;;;5032167;28;20037;-56
2022/04/26 07:38:07;;;;;;;36.20;10.02;;;20.50;84.10;;;;;;5081573;28;20036;-56
2022/04/26 07:40:33;;;;;;;25.15;7.10;;;20.80;77.30;;;;;;5093996;28;20531;-56
2022/04/26 07:43:00;;;;;;;30.17;7.85;;;20.70;72.80;;;;;;5091685;28;20032;-56
2022/04/26 07:45:26;;;;;;;17.60;5.18;;;20.70;70.20;;;;;;5093503;28;20477;-56
2022/04/26 07:47:52;;;;;;;42.50;7.22;;;20.50;61.70;;;;;;5092784;28;20107;-57
2022/04/26 07:50:18;;;;;;;19.88;6.15;;;20.70;67.80;;;;;;5093948;28;20458;-56
2022/04/26 07:52:45;;;;;;;22.02;5.18;;;21.00;64.90;;;;;;5094687;28;20027;-57
2022/04/26 07:55:11;;;;;;;19.67;4.95;;;21.30;59.50;;;;;;5092488;28;20020;-57
2022/04/26 07:57:39;;;;;;;16.48;4.55;;;21.40;64.80;;;;;;5093703;28;20020;-56
2022/04/26 08:00:06;;;;;;;17.23;4.78;;;21.70;55.50;;;;;;5082637;28;20494;-56
2022/04/26 08:02:39;;;;;;;17.55;3.58;;;22.00;59.80;;;;;;5090656;28;20028;-56
2022/04/26 08:05:05;;;;;;;12.13;3.22;;;22.30;57.00;;;;;;5094417;28;20040;-57
2022/04/26 08:07:33;;;;;;;21.05;3.65;;;22.70;55.40;;;;;;5099258;28;20039;-56
2022/04/26 08:09:59;;;;;;;12.40;2.50;;;22.50;54.50;;;;;;5101865;28;20020;-57
2022/04/26 08:12:25;;;;;;;12.15;2.72;;;22.90;51.20;;;;;;5094003;28;20023;-57
2022/04/26 08:14:51;;;;;;;12.13;2.42;;;23.00;47.90;;;;;;5098655;28;20020;-56
2022/04/26 08:17:20;;;;;;;11.05;2.05;;;22.70;47.30;;;;;;5098476;28;20482;-56
2022/04/26 08:19:46;;;;;;;7.70;2.00;;;22.80;47.80;;;;;;5094223;28;20070;-57
2022/04/26 08:22:12;;;;;;;13.88;3.13;;;23.30;49.40;;;;;;5102265;28;20130;-57
2022/04/26 08:27:22;;;;;;;5.43;1.67;;;23.80;50.10;;;;;;5093965;28;20499;-56
2022/04/26 08:29:49;;;;;;;8.90;2.05;;;24.10;45.80;;;;;;5074376;28;20055;-56
2022/04/26 08:32:16;;;;;;;12.82;2.60;;;24.00;45.20;;;;;;5098016;28;20042;-56
2022/04/26 08:34:42;;;;;;;19.55;4.07;;;24.10;43.30;;;;;;5097158;28;20028;-56
2022/04/26 08:37:09;;;;;;;5.88;1.73;;;24.00;43.60;;;;;;5096347;28;20454;-56
2022/04/26 08:39:35;;;;;;;9.43;2.50;;;24.00;43.80;;;;;;5094221;28;20404;-56
2022/04/26 08:42:03;;;;;;;6.22;2.22;;;24.20;46.10;;;;;;5097925;28;20039;-56
2022/04/26 08:44:34;;;;;;;10.40;2.58;;;24.60;46.80;;;;;;5097179;28;20032;-57
2022/04/26 08:52:52;;;;;;;17.05;3.60;;;25.10;45.20;;;;;;5097422;28;20060;-57
2022/04/26 08:55:19;;;;;;;14.38;3.72;;;25.00;43.30;;;;;;5115966;28;20015;-57
2022/04/26 08:57:46;;;;;;;11.73;3.00;;;25.20;43.10;;;;;;5110309;28;20024;-57
2022/04/26 09:00:13;;;;;;;12.88;3.58;;;25.50;42.30;;;;;;5116522;28;20031;-57
2022/04/26 09:02:39;;;;;;;40.35;7.65;;;25.40;41.20;;;;;;5112176;28;20070;-57
2022/04/26 09:05:13;;;;;;;24.40;5.15;;;25.30;40.60;;;;;;5096888;28;20028;-57
2022/04/26 09:07:41;;;;;;;28.00;6.72;;;25.60;41.30;;;;;;5095039;28;20031;-57
2022/04/26 09:10:15;;;;;;;34.85;7.50;;;25.90;44.00;;;;;;5076886;28;20104;-57
2022/04/26 09:13:09;;;;;;;32.03;7.40;;;26.00;40.10;;;;;;5082140;28;20512;-57
2022/04/26 09:15:43;;;;;;;21.40;4.82;;;26.00;39.80;;;;;;5091984;28;20501;-57
2022/04/26 09:18:27;;;;;;;17.25;3.80;;;26.40;39.30;;;;;;5092250;28;20499;-57
2022/04/26 09:21:06;;;;;;;14.98;3.95;;;26.50;38.70;;;;;;5093409;28;20036;-57
2022/04/26 09:23:37;;;;;;;24.77;5.00;;;26.50;39.80;;;;;;5091964;28;20397;-57
2022/04/26 09:26:09;;;;;;;23.73;5.50;;;26.80;38.40;;;;;;5091224;28;20104;-57
2022/04/26 09:28:58;;;;;;;25.02;4.78;;;26.60;38.90;;;;;;5095909;28;20119;-57
2022/04/26 09:31:25;;;;;;;21.17;5.30;;;26.20;39.30;;;;;;5095829;28;20027;-57
2022/04/26 09:33:53;;;;;;;15.23;4.40;;;26.10;40.00;;;;;;5098816;28;20027;-57
2022/04/26 09:36:21;;;;;;;16.85;3.67;;;26.30;39.70;;;;;;5095971;28;20020;-57
2022/04/26 09:38:58;;;;;;;14.85;3.60;;;26.40;36.30;;;;;;5093508;28;20037;-57
2022/04/26 09:41:27;;;;;;;18.73;5.50;;;26.60;38.20;;;;;;5094165;28;20027;-57
2022/04/26 09:44:01;;;;;;;17.25;4.07;;;26.40;36.30;;;;;;5093539;28;20477;-57
2022/04/26 09:46:42;;;;;;;18.02;3.70;;;26.70;41.00;;;;;;5098241;28;20024;-57
2022/04/26 09:49:17;;;;;;;14.43;2.50;;;26.50;36.50;;;;;;5095688;28;20020;-57
2022/04/26 09:51:51;;;;;;;9.30;3.78;;;25.40;38.70;;;;;;5096826;28;20024;-57
2022/04/26 09:54:18;;;;;;;10.55;2.38;;;25.50;40.00;;;;;;5097526;28;20031;-57
2022/04/26 09:56:45;;;;;;;13.60;3.70;;;25.60;36.30;;;;;;5091995;28;20036;-56
2022/04/26 09:59:32;;;;;;;10.70;2.17;;;25.30;37.30;;;;;;5095746;28;20465;-57
2022/04/26 10:01:59;;;;;;;10.75;3.10;;;25.20;37.80;;;;;;5096362;28;20068;-57
2022/04/26 10:04:30;;;;;;;16.15;3.65;;;25.10;39.00;;;;;;5095797;28;20114;-56
2022/04/26 10:07:05;;;;;;;12.65;3.58;;;25.20;37.40;;;;;;5093254;28;20083;-56
2022/04/26 10:09:32;;;;;;;11.43;3.70;;;25.50;38.30;;;;;;5071243;28;20115;-57
2022/04/26 10:12:01;;;;;;;27.90;6.30;;;25.60;37.80;;;;;;5096054;28;20031;-57
2022/04/26 10:14:32;;;;;;;15.75;2.78;;;26.20;37.50;;;;;;5093655;28;20023;-57
2022/04/26 10:16:59;;;;;;;11.65;2.55;;;26.00;36.40;;;;;;5087264;28;20070;-57
2022/04/26 10:19:43;;;;;;;14.05;3.63;;;25.10;36.30;;;;;;5092569;28;20035;-57
2022/04/26 10:22:11;;;;;;;7.93;2.53;;;25.80;38.70;;;;;;5095664;28;20482;-57
2022/04/26 10:24:39;;;;;;;8.52;2.50;;;25.70;36.20;;;;;;5094542;28;20038;-57
2022/04/26 10:27:25;;;;;;;14.52;3.65;;;26.00;37.90;;;;;;5093098;28;20024;-57
2022/04/26 10:29:52;;;;;;;20.85;5.00;;;25.90;37.90;;;;;;5069983;28;20068;-57
2022/04/26 10:32:34;;;;;;;29.02;6.88;;;25.90;38.20;;;;;;5095131;28;20386;-57
2022/04/26 10:35:25;;;;;;;19.17;4.32;;;26.20;37.30;;;;;;5090554;28;20030;-57
2022/04/26 10:38:16;;;;;;;18.55;4.45;;;26.70;36.90;;;;;;5088482;28;20059;-57
2022/04/26 10:41:00;;;;;;;12.25;4.18;;;26.80;37.40;;;;;;5093592;28;20025;-57
2022/04/26 10:43:26;;;;;;;9.88;2.22;;;26.60;36.60;;;;;;5097496;28;20083;-57
2022/04/26 10:46:15;;;;;;;16.63;4.72;;;26.40;36.90;;;;;;5106754;28;20027;-57
2022/04/26 10:48:42;;;;;;;9.65;3.03;;;26.20;36.00;;;;;;5094568;28;20028;-57
2022/04/26 10:51:34;;;;;;;9.73;3.30;;;26.60;36.70;;;;;;5088944;28;20035;-57
2022/04/26 10:54:01;;;;;;;13.93;3.38;;;27.30;36.70;;;;;;5093376;28;20018;-57
2022/04/26 10:56:27;;;;;;;15.27;3.88;;;27.10;35.90;;;;;;5095540;28;20077;-57
2022/04/26 10:58:53;;;;;;;9.00;2.72;;;26.40;36.40;;;;;;5089249;28;20028;-57
2022/04/26 11:01:24;;;;;;;14.38;2.97;;;27.00;37.80;;;;;;5091544;28;20035;-57
2022/04/26 11:03:57;;;;;;;16.15;3.88;;;26.30;36.00;;;;;;5093919;28;20580;-57
2022/04/26 11:06:38;;;;;;;8.57;2.60;;;25.90;36.50;;;;;;5092539;28;20023;-57
2022/04/26 11:09:08;;;;;;;13.82;3.03;;;26.20;37.90;;;;;;5082776;28;20024;-57
2022/04/26 11:11:53;;;;;;;14.77;3.30;;;26.40;36.60;;;;;;5094361;28;20055;-57
2022/04/26 11:14:20;;;;;;;5.57;1.90;;;26.60;35.40;;;;;;5085373;28;20289;-57
2022/04/26 11:17:06;;;;;;;8.73;1.50;;;26.60;36.20;;;;;;5086298;28;20020;-57
2022/04/26 11:19:38;;;;;;;11.23;3.03;;;27.10;36.80;;;;;;5087406;28;20058;-57
2022/04/26 11:22:15;;;;;;;13.88;2.85;;;27.30;33.80;;;;;;5084596;28;20048;-57
2022/04/26 11:30:31;;;;;;;6.18;1.55;;;26.60;32.80;;;;;;5087190;28;20033;-57
2022/04/26 11:33:03;;;;;;;12.45;2.58;;;26.60;33.50;;;;;;5074322;28;20386;-56
2022/04/26 11:35:30;;;;;;;17.17;3.45;;;26.40;32.40;;;;;;5074246;28;20028;-56
2022/04/26 11:38:02;;;;;;;7.03;2.08;;;26.30;34.30;;;;;;5095315;28;20028;-57
2022/04/26 11:40:32;;;;;;;6.95;1.90;;;25.30;34.90;;;;;;5096234;28;20125;-57
2022/04/26 11:43:05;;;;;;;5.95;1.60;;;24.50;35.90;;;;;;5095025;28;20111;-56
2022/04/26 11:45:33;;;;;;;13.70;2.60;;;24.00;36.20;;;;;;5088807;28;20035;-57
2022/04/26 11:47:59;;;;;;;7.20;1.80;;;24.10;38.30;;;;;;5090804;28;20430;-56
2022/04/26 11:50:28;;;;;;;4.25;1.50;;;24.20;39.30;;;;;;5082744;28;20032;-57
2022/04/26 11:53:00;;;;;;;8.02;1.90;;;24.20;37.60;;;;;;5079624;28;20035;-56
2022/04/26 11:55:31;;;;;;;6.45;1.85;;;24.00;37.80;;;;;;5085583;28;20024;-56
2022/04/26 11:58:09;;;;;;;10.65;2.88;;;23.90;38.00;;;;;;5080448;28;20478;-56
2022/04/26 12:00:49;;;;;;;12.30;2.53;;;23.60;38.50;;;;;;5079889;28;20423;-56
2022/04/26 12:03:17;;;;;;;7.07;2.95;;;23.40;39.30;;;;;;5086704;28;20470;-56
2022/04/26 12:05:47;;;;;;;10.25;2.70;;;23.30;40.30;;;;;;5090003;28;20032;-56
2022/04/26 12:08:13;;;;;;;9.50;2.60;;;23.20;39.80;;;;;;5096320;28;20035;-57
2022/04/26 12:10:39;;;;;;;11.10;2.40;;;23.50;40.50;;;;;;5088900;28;20027;-57
2022/04/26 12:13:06;;;;;;;8.48;2.30;;;23.90;39.90;;;;;;5088576;28;20024;-56
2022/04/26 12:15:40;;;;;;;146.90;35.15;;;24.20;39.20;;;;;;5091549;28;20027;-56
2022/04/26 12:18:13;;;;;;;5.88;2.70;;;24.60;38.50;;;;;;5093011;28;20551;-57
2022/04/26 12:20:55;;;;;;;18.27;3.80;;;24.40;36.70;;;;;;5091119;28;20123;-56
2022/04/26 12:23:22;;;;;;;6.18;2.20;;;24.40;38.00;;;;;;5068461;28;20450;-56
2022/04/26 12:25:55;;;;;;;17.63;3.50;;;24.60;39.60;;;;;;5082782;28;20032;-56
2022/04/26 12:28:25;;;;;;;30.52;13.73;;;24.40;37.90;;;;;;5085494;28;20060;-56
2022/04/26 12:30:53;;;;;;;5.93;2.50;;;24.00;37.60;;;;;;5077221;28;20024;-56
2022/04/26 12:33:27;;;;;;;5.82;1.80;;;24.00;38.80;;;;;;5073838;28;20470;-56
2022/04/26 12:36:01;;;;;;;6.68;2.00;;;23.90;37.20;;;;;;5090788;28;20024;-56
2022/04/26 12:38:28;;;;;;;14.63;2.85;;;23.80;38.80;;;;;;5076006;28;20473;-56
2022/04/26 12:41:05;;;;;;;5.95;1.58;;;23.70;39.00;;;;;;5087107;28;20115;-56
2022/04/26 12:43:32;;;;;;;7.15;1.88;;;23.80;39.00;;;;;;5079680;28;20028;-56
2022/04/26 12:46:02;;;;;;;9.20;2.60;;;23.80;38.80;;;;;;5093741;28;20024;-56
2022/04/26 12:51:24;;;;;;;15.90;3.28;;;23.80;38.10;;;;;;5072011;28;20052;-56
2022/04/26 12:53:52;;;;;;;6.95;2.80;;;24.10;37.60;;;;;;5070917;28;20109;-56
2022/04/26 12:56:30;;;;;;;7.28;2.72;;;24.20;37.30;;;;;;5077465;28;20028;-56
2022/04/26 12:59:13;;;;;;;15.10;3.55;;;24.30;39.40;;;;;;5097301;28;20027;-56
2022/04/26 13:01:39;;;;;;;21.05;4.03;;;24.60;40.00;;;;;;5097321;28;20059;-56
2022/04/26 13:04:05;;;;;;;15.30;2.60;;;24.60;40.70;;;;;;5097143;28;20024;-56
2022/04/26 13:06:31;;;;;;;19.17;3.03;;;24.60;42.00;;;;;;5097275;28;20546;-56
2022/04/26 13:08:57;;;;;;;21.40;3.83;;;24.80;43.90;;;;;;5080386;28;20032;-56
2022/04/26 13:11:23;;;;;;;14.15;2.50;;;24.70;44.30;;;;;;5076695;28;20048;-56
2022/04/26 13:13:51;;;;;;;5.40;1.63;;;24.70;45.60;;;;;;5078045;28;20028;-56
2022/04/26 13:16:17;;;;;;;11.65;2.90;;;24.70;45.70;;;;;;5095793;28;20085;-56
2022/04/26 13:18:43;;;;;;;17.73;4.47;;;24.80;44.70;;;;;;5096538;28;20036;-56
2022/04/26 13:21:09;;;;;;;33.60;4.88;;;24.80;45.20;;;;;;5095636;28;20044;-56
2022/04/26 13:23:36;;;;;;;5.82;1.80;;;24.70;45.90;;;;;;5096186;28;20047;-56
2022/04/26 13:26:02;;;;;;;10.32;1.92;;;24.50;45.50;;;;;;5095588;28;20032;-56
2022/04/26 13:28:29;;;;;;;6.90;2.50;;;24.70;48.50;;;;;;5096012;28;20028;-56
2022/04/26 13:30:55;;;;;;;6.95;1.80;;;24.90;46.50;;;;;;5091754;28;20028;-56
2022/04/26 13:33:21;;;;;;;3.63;1.58;;;25.10;43.10;;;;;;5084790;28;20024;-56
2022/04/26 13:35:47;;;;;;;14.65;5.05;;;25.30;43.60;;;;;;5093866;28;20023;-56
2022/04/26 13:38:14;;;;;;;14.73;3.13;;;25.40;43.50;;;;;;5075136;28;20025;-56
2022/04/26 13:40:41;;;;;;;10.98;3.08;;;25.10;41.00;;;;;;5075935;28;20047;-56
2022/04/26 13:43:09;;;;;;;7.32;2.20;;;24.80;41.00;;;;;;5095152;28;20024;-56
2022/04/26 13:45:35;;;;;;;8.45;1.75;;;25.00;39.70;;;;;;5096129;28;20024;-56
2022/04/26 13:48:08;;;;;;;9.63;2.58;;;25.10;37.40;;;;;;5096153;28;20062;-56
2022/04/26 13:50:35;;;;;;;5.90;2.28;;;25.00;39.50;;;;;;5096219;28;20590;-56
2022/04/26 13:53:01;;;;;;;12.50;3.33;;;25.20;40.00;;;;;;5096064;28;20492;-56
2022/04/26 13:55:27;;;;;;;7.50;2.03;;;25.30;37.60;;;;;;5096295;28;20047;-56
2022/04/26 13:57:54;;;;;;;6.57;2.30;;;25.10;37.30;;;;;;5095904;28;20031;-56
2022/04/26 14:00:21;;;;;;;7.47;2.28;;;25.30;38.60;;;;;;5095845;28;20055;-56
2022/04/26 14:02:48;;;;;;;6.97;2.72;;;25.30;38.90;;;;;;5095643;28;20542;-56
2022/04/26 14:05:20;;;;;;;9.52;2.90;;;25.10;38.40;;;;;;5096064;28;20035;-56
2022/04/26 14:07:47;;;;;;;11.35;3.08;;;24.90;37.10;;;;;;5095512;28;20405;-56
2022/04/26 14:10:14;;;;;;;6.07;2.13;;;24.80;38.70;;;;;;5096392;28;20032;-56
2022/04/26 14:12:40;;;;;;;11.93;2.70;;;24.30;39.90;;;;;;5095497;28;20545;-56
2022/04/26 14:23:25;;;;;;;16.45;3.75;;;24.50;41.00;;;;;;5095627;28;20059;-56
2022/04/26 14:25:51;;;;;;;12.50;3.00;;;24.20;40.10;;;;;;5095237;28;20336;-56
2022/04/26 14:28:17;;;;;;;16.48;3.95;;;24.20;40.30;;;;;;5095345;28;20051;-56
2022/04/26 14:30:43;;;;;;;13.93;3.15;;;24.10;40.40;;;;;;5095291;28;20032;-56
2022/04/26 14:33:09;;;;;;;8.55;2.67;;;24.20;39.90;;;;;;5095430;28;20024;-56
2022/04/26 14:35:35;;;;;;;7.85;2.35;;;24.20;42.40;;;;;;5084111;28;20111;-56
2022/04/26 14:38:01;;;;;;;8.60;2.10;;;24.10;39.00;;;;;;5075139;28;20039;-56
2022/04/26 14:40:28;;;;;;;7.85;2.20;;;24.00;39.10;;;;;;5074825;28;20039;-56
2022/04/26 14:42:54;;;;;;;14.23;2.90;;;24.00;39.90;;;;;;5074845;28;20426;-56
2022/04/26 14:45:21;;;;;;;9.77;2.00;;;24.00;40.80;;;;;;5074911;28;20031;-56
2022/04/26 14:47:47;;;;;;;17.10;3.70;;;24.00;41.00;;;;;;5074688;28;20037;-56
2022/04/26 14:50:13;;;;;;;8.65;2.35;;;24.00;40.70;;;;;;5074723;28;20024;-56
2022/04/26 14:52:39;;;;;;;6.57;2.47;;;24.00;43.70;;;;;;5074834;28;20020;-57
2022/04/26 14:55:08;;;;;;;4.72;2.00;;;24.00;41.40;;;;;;5074852;28;20031;-56
2022/04/26 14:57:38;;;;;;;6.80;2.03;;;24.00;40.30;;;;;;5074589;28;20020;-56
2022/04/26 15:00:05;;;;;;;4.82;1.70;;;24.00;43.20;;;;;;5074479;28;20029;-56
2022/04/26 15:02:38;;;;;;;13.48;3.50;;;24.00;43.70;;;;;;5074447;28;20036;-56
2022/04/26 15:05:08;;;;;;;9.35;2.65;;;24.00;43.80;;;;;;5074396;28;20115;-56
2022/04/26 15:10:21;;;;;;;7.93;1.90;;;24.00;44.30;;;;;;5052978;28;19916;-56
2022/04/26 15:18:17;;;;;;;8.38;2.00;;;23.60;46.20;;;;;;5074274;28;20036;-56
2022/04/26 15:20:48;;;;;;;11.45;3.60;;;23.50;47.30;;;;;;5071508;28;20021;-56
2022/04/26 15:23:15;;;;;;;4.45;2.30;;;23.50;48.80;;;;;;5054212;28;20100;-56
2022/04/26 15:25:41;;;;;;;5.45;1.50;;;23.50;47.60;;;;;;5054022;28;20025;-56
2022/04/26 15:28:09;;;;;;;12.68;3.47;;;23.40;47.60;;;;;;5054090;28;20605;-56
2022/04/26 15:30:42;;;;;;;11.38;3.38;;;23.40;48.70;;;;;;5054206;28;20041;-56
2022/04/26 15:33:08;;;;;;;6.80;1.58;;;23.40;51.80;;;;;;5054067;28;20536;-56
2022/04/26 15:35:34;;;;;;;8.25;2.78;;;23.10;50.70;;;;;;5054076;28;20028;-56
2022/04/26 15:38:00;;;;;;;14.65;2.83;;;23.10;49.50;;;;;;5053953;28;20024;-56
2022/04/26 15:40:26;;;;;;;6.18;2.05;;;23.10;49.90;;;;;;5054065;28;20083;-56
2022/04/26 15:42:52;;;;;;;4.90;1.80;;;23.10;52.00;;;;;;5053903;28;20037;-56
2022/04/26 15:45:18;;;;;;;3.58;1.35;;;23.00;52.30;;;;;;5054077;28;20025;-56
2022/04/26 15:47:44;;;;;;;6.57;2.22;;;22.90;52.30;;;;;;5053681;28;20047;-56
2022/04/26 15:50:10;;;;;;;6.68;2.42;;;22.80;52.40;;;;;;5053898;28;20067;-56
2022/04/26 15:52:37;;;;;;;17.30;4.18;;;22.80;52.50;;;;;;5054104;28;20434;-56
2022/04/26 15:55:04;;;;;;;6.07;2.53;;;22.80;53.20;;;;;;5053578;28;20025;-56
2022/04/26 15:57:30;;;;;;;7.13;2.53;;;22.70;52.70;;;;;;5053827;28;20021;-56
2022/04/26 15:59:56;;;;;;;7.18;2.60;;;22.70;50.90;;;;;;5053606;28;20032;-56
2022/04/26 16:02:23;;;;;;;6.45;2.08;;;22.70;52.80;;;;;;5053530;28;20037;-56
2022/04/26 16:04:51;;;;;;;6.35;2.60;;;22.60;52.70;;;;;;5053130;28;20033;-56
2022/04/26 16:07:18;;;;;;;5.45;1.58;;;22.50;52.50;;;;;;5053707;28;20395;-56
2022/04/26 16:20:43;;;;;;;16.92;3.75;;;22.00;52.90;;;;;;5054550;28;20479;-56
2022/04/26 16:23:09;;;;;;;12.55;3.45;;;22.00;54.70;;;;;;5073646;28;20116;-56
2022/04/26 16:25:35;;;;;;;6.25;1.70;;;21.80;53.80;;;;;;5073603;28;20055;-56
2022/04/26 16:28:01;;;;;;;3.67;1.63;;;21.70;56.70;;;;;;5076872;28;20536;-56
2022/04/26 16:30:30;;;;;;;8.60;2.65;;;21.50;55.90;;;;;;5077443;28;20117;-56
2022/04/26 16:33:04;;;;;;;9.45;2.47;;;21.50;56.90;;;;;;5077112;28;20293;-56
2022/04/26 16:35:32;;;;;;;10.73;3.05;;;21.20;57.90;;;;;;5077282;28;20031;-56
2022/04/26 16:37:58;;;;;;;12.57;2.55;;;21.10;57.60;;;;;;5077130;28;20017;-56
2022/04/26 16:40:24;;;;;;;11.55;3.60;;;21.00;61.70;;;;;;5077222;28;20036;-56
2022/04/26 16:42:51;;;;;;;12.75;4.13;;;20.80;63.40;;;;;;5077103;28;20115;-56
2022/04/26 16:45:17;;;;;;;8.60;2.80;;;20.70;64.60;;;;;;5077194;28;20036;-56
2022/04/26 16:47:43;;;;;;;9.02;2.90;;;20.60;63.00;;;;;;5077090;28;20170;-56
2022/04/26 16:50:09;;;;;;;12.65;2.85;;;20.50;66.50;;;;;;5077121;28;20117;-56
2022/04/26 16:52:36;;;;;;;5.93;2.40;;;20.40;65.80;;;;;;5077140;28;20024;-56
2022/04/26 16:55:03;;;;;;;7.43;3.75;;;20.30;64.90;;;;;;5076947;28;20032;-56
2022/04/26 16:57:31;;;;;;;9.02;3.90;;;20.30;68.90;;;;;;5077036;28;20483;-56
2022/04/26 16:59:57;;;;;;;8.63;4.15;;;20.10;74.60;;;;;;5076494;28;20094;-56
2022/04/26 17:02:27;;;;;;;11.43;3.63;;;20.00;74.40;;;;;;5077062;28;20119;-56
2022/04/26 17:04:53;;;;;;;9.13;3.87;;;19.90;78.10;;;;;;5076842;28;20348;-56
2022/04/26 17:07:19;;;;;;;11.02;4.45;;;19.80;81.30;;;;;;5076773;28;20024;-56
2022/04/26 17:09:46;;;;;;;12.10;5.90;;;19.70;84.30;;;;;;5076582;28;20028;-56
2022/04/26 17:12:14;;;;;;;12.02;7.40;;;19.50;86.40;;;;;;5077054;28;20028;-56